Time;durP1;ratioP1;P1;durP2;ratioP2;P2;SDS_P1;SDS_P2;PMS_P1;PMS_P2;Temp;Humidity;BMP_temperature;BMP_pressure;BME280_temperature;BME280_humidity;BME280_pressure;Samples;Min_cycle;Max_cycle;Signal;HPM_P1;HPM_P2
2023/10/14 00:01:15;;;;;;;13.53;10.60;;;19.20;99.90;;;;;;5025989;28;21000;-72
2023/10/14 00:03:42;;;;;;;15.20;10.77;;;19.10;99.90;;;;;;5018452;28;20441;-71
2023/10/14 00:06:13;;;;;;;11.43;10.00;;;19.10;99.90;;;;;;5012213;28;20421;-71
2023/10/14 00:08:58;;;;;;;18.77;10.10;;;19.10;99.90;;;;;;5016420;28;20894;-71
2023/10/14 00:11:53;;;;;;;15.63;10.80;;;19.10;99.90;;;;;;5015968;28;20448;-70
2023/10/14 00:14:18;;;;;;;15.87;11.23;;;19.10;99.90;;;;;;5025178;28;20464;-71
2023/10/14 00:16:51;;;;;;;12.23;10.27;;;19.00;99.90;;;;;;5020962;28;20425;-71
2023/10/14 00:19:18;;;;;;;13.57;10.93;;;19.00;99.90;;;;;;5024028;28;20457;-71
2023/10/14 00:21:45;;;;;;;16.87;10.60;;;19.00;99.90;;;;;;5028887;28;20956;-71
2023/10/14 00:24:16;;;;;;;18.13;11.30;;;18.90;99.90;;;;;;5021153;28;20453;-70
2023/10/14 00:26:47;;;;;;;15.33;11.30;;;18.90;99.90;;;;;;5025836;28;20421;-71
2023/10/14 00:31:49;;;;;;;12.17;9.90;;;18.70;99.90;;;;;;5019734;28;20425;-71
2023/10/14 00:34:15;;;;;;;12.60;9.70;;;18.60;99.90;;;;;;5009727;28;20462;-70
2023/10/14 00:36:42;;;;;;;9.53;8.40;;;18.60;99.90;;;;;;5024770;28;20975;-71
2023/10/14 00:39:23;;;;;;;11.33;8.47;;;18.60;99.90;;;;;;5024335;28;20425;-71
2023/10/14 00:41:52;;;;;;;13.53;8.97;;;18.50;99.90;;;;;;5024745;28;20470;-72
2023/10/14 00:44:20;;;;;;;11.20;9.10;;;18.40;99.90;;;;;;5027167;28;20448;-70
2023/10/14 00:46:49;;;;;;;11.17;8.30;;;18.40;99.90;;;;;;5022175;28;20429;-71
2023/10/14 00:49:21;;;;;;;10.90;8.40;;;18.30;99.90;;;;;;5026452;28;20413;-70
2023/10/14 00:51:51;;;;;;;14.70;9.40;;;18.20;99.90;;;;;;5029116;28;20435;-71
2023/10/14 00:57:10;;;;;;;11.50;9.77;;;18.10;99.90;;;;;;5038279;28;20433;-71
2023/10/14 00:59:37;;;;;;;14.87;9.40;;;18.00;99.90;;;;;;5011035;28;20520;-71
2023/10/14 01:02:05;;;;;;;10.50;9.07;;;18.00;99.90;;;;;;5011931;28;20425;-71
2023/10/14 01:04:34;;;;;;;9.87;7.80;;;18.00;99.90;;;;;;5003639;28;20476;-71
2023/10/14 01:07:12;;;;;;;9.67;6.30;;;17.90;99.90;;;;;;5028527;28;20421;-71
2023/10/14 01:12:28;;;;;;;10.20;7.63;;;17.80;99.90;;;;;;5028736;28;20500;-71
2023/10/14 01:15:10;;;;;;;10.80;9.70;;;17.70;99.90;;;;;;5028659;28;20468;-71
2023/10/14 01:17:36;;;;;;;11.60;9.63;;;17.70;99.90;;;;;;5028412;28;20429;-72
2023/10/14 01:20:48;;;;;;;12.83;9.77;;;17.70;99.90;;;;;;5028373;28;20491;-71
2023/10/14 01:23:00;;;;;;;11.73;9.30;;;17.70;99.90;;;;;;4994737;28;20266;-71
2023/10/14 01:25:30;;;;;;;12.77;10.20;;;17.60;99.90;;;;;;5019066;28;20793;-71
2023/10/14 01:27:59;;;;;;;14.43;9.40;;;17.70;99.90;;;;;;5020298;28;20453;-71
2023/10/14 01:30:26;;;;;;;11.83;9.30;;;17.70;99.90;;;;;;5012577;28;20461;-71
2023/10/14 01:33:08;;;;;;;12.07;7.97;;;17.70;99.90;;;;;;5012941;28;20440;-71
2023/10/14 01:35:40;;;;;;;6.87;5.23;;;17.70;99.90;;;;;;5010418;28;20553;-71
2023/10/14 01:38:06;;;;;;;6.37;3.43;;;17.50;99.90;;;;;;5010803;28;21127;-70
2023/10/14 01:43:10;;;;;;;2.10;1.20;;;17.30;99.90;;;;;;5022296;28;20846;-70
2023/10/14 01:45:40;;;;;;;4.93;1.27;;;17.20;99.90;;;;;;5026016;28;20429;-71
2023/10/14 01:50:44;;;;;;;1.87;1.00;;;16.90;99.90;;;;;;5027747;28;20425;-71
2023/10/14 01:53:11;;;;;;;0.83;0.73;;;16.80;99.90;;;;;;5009767;28;21298;-71
2023/10/14 01:55:41;;;;;;;1.13;0.90;;;16.60;99.90;;;;;;5020043;28;20460;-71
2023/10/14 01:58:10;;;;;;;1.20;0.93;;;16.50;99.90;;;;;;5026943;28;20421;-71
2023/10/14 02:00:39;;;;;;;0.80;0.50;;;16.40;99.90;;;;;;5025974;28;20459;-72
2023/10/14 02:03:06;;;;;;;0.80;0.57;;;16.30;99.90;;;;;;5027690;28;20448;-70
2023/10/14 02:05:40;;;;;;;1.00;0.63;;;16.30;99.90;;;;;;5020855;28;20443;-72
2023/10/14 02:08:15;;;;;;;1.00;0.73;;;16.20;99.90;;;;;;5021359;28;20418;-71
2023/10/14 02:10:46;;;;;;;0.87;0.57;;;16.10;99.90;;;;;;5019619;28;20418;-71
2023/10/14 02:13:18;;;;;;;2.40;0.67;;;16.00;99.90;;;;;;5019063;28;20987;-71
2023/10/14 02:15:46;;;;;;;2.40;0.50;;;15.80;99.90;;;;;;5024926;28;20476;-72
2023/10/14 02:18:22;;;;;;;2.30;0.97;;;15.80;99.90;;;;;;5026293;28;20471;-70
2023/10/14 02:21:04;;;;;;;0.80;0.80;;;15.80;99.90;;;;;;5038641;28;20440;-71
2023/10/14 02:23:43;;;;;;;1.60;1.13;;;15.70;99.90;;;;;;5024309;28;20441;-71
2023/10/14 02:26:16;;;;;;;2.23;1.57;;;15.60;99.90;;;;;;5005413;28;20430;-71
2023/10/14 02:28:45;;;;;;;3.20;1.60;;;15.60;99.90;;;;;;5010526;28;20426;-70
2023/10/14 02:31:17;;;;;;;1.73;1.63;;;15.50;99.90;;;;;;5026914;28;20462;-71
2023/10/14 02:33:47;;;;;;;2.43;1.67;;;15.50;99.90;;;;;;5030907;28;20461;-72
2023/10/14 02:36:16;;;;;;;1.93;1.63;;;15.40;99.90;;;;;;5032889;28;20837;-72
2023/10/14 02:38:53;;;;;;;2.20;1.50;;;15.40;99.90;;;;;;5031299;28;20508;-71
2023/10/14 02:41:19;;;;;;;1.60;1.30;;;15.40;99.90;;;;;;5026417;28;20719;-71
2023/10/14 02:43:49;;;;;;;1.67;0.70;;;15.40;99.90;;;;;;5027167;28;20824;-71
2023/10/14 02:46:25;;;;;;;1.93;0.87;;;15.40;99.90;;;;;;5026559;28;21091;-70
2023/10/14 02:48:54;;;;;;;1.07;0.80;;;15.40;99.90;;;;;;5027116;28;20412;-71
2023/10/14 02:51:42;;;;;;;1.10;0.67;;;15.30;99.90;;;;;;5027175;28;20477;-71
2023/10/14 02:54:26;;;;;;;0.70;0.53;;;15.20;99.90;;;;;;5026860;28;20484;-71
2023/10/14 02:57:00;;;;;;;2.37;0.80;;;15.20;99.90;;;;;;5012321;28;20461;-71
2023/10/14 03:02:16;;;;;;;1.27;0.50;;;15.20;99.90;;;;;;5026572;28;20857;-71
2023/10/14 03:07:30;;;;;;;1.00;0.60;;;15.20;99.90;;;;;;5010396;28;20440;-71
2023/10/14 03:10:27;;;;;;;2.10;0.50;;;15.10;99.90;;;;;;5026777;28;20789;-71
2023/10/14 03:12:53;;;;;;;1.20;0.50;;;15.10;99.90;;;;;;5026802;28;20413;-70
2023/10/14 03:15:21;;;;;;;1.50;0.70;;;15.10;99.90;;;;;;5025891;28;20522;-70
2023/10/14 03:17:58;;;;;;;1.40;0.80;;;15.10;99.90;;;;;;5025246;28;20174;-70
2023/10/14 03:20:34;;;;;;;1.10;0.70;;;15.20;99.90;;;;;;5026526;28;20432;-69
2023/10/14 03:23:00;;;;;;;1.00;0.90;;;15.20;99.90;;;;;;5026351;28;20417;-70
2023/10/14 03:25:29;;;;;;;0.87;0.80;;;15.20;99.90;;;;;;5026097;28;20475;-71
2023/10/14 03:28:06;;;;;;;1.97;1.20;;;15.20;99.90;;;;;;5026864;28;20180;-70
2023/10/14 03:30:37;;;;;;;2.60;1.40;;;15.10;99.90;;;;;;5026507;28;20432;-71
2023/10/14 03:33:09;;;;;;;2.30;1.70;;;15.10;99.90;;;;;;5026478;28;20421;-71
2023/10/14 03:35:41;;;;;;;2.93;1.50;;;15.10;99.90;;;;;;5025668;28;20491;-70
2023/10/14 03:41:10;;;;;;;1.97;1.60;;;15.00;99.90;;;;;;5020177;28;20478;-71
2023/10/14 03:43:54;;;;;;;5.60;1.27;;;15.00;99.90;;;;;;5025945;28;20448;-71
2023/10/14 03:46:30;;;;;;;6.90;1.77;;;14.90;99.90;;;;;;5025819;28;20425;-71
2023/10/14 03:48:56;;;;;;;3.00;1.27;;;14.80;99.90;;;;;;5026518;28;20421;-71
2023/10/14 03:51:32;;;;;;;5.30;1.27;;;14.70;99.90;;;;;;5026697;28;20482;-71
2023/10/14 03:54:06;;;;;;;5.63;1.83;;;14.70;99.90;;;;;;5025154;28;20436;-71
2023/10/14 03:56:34;;;;;;;6.53;2.47;;;14.60;99.90;;;;;;5025542;28;20519;-71
2023/10/14 03:59:01;;;;;;;5.23;2.20;;;14.40;99.90;;;;;;5026906;28;20478;-71
2023/10/14 04:04:18;;;;;;;9.57;2.40;;;14.20;99.90;;;;;;5023279;28;20433;-71
2023/10/14 04:06:55;;;;;;;3.80;1.80;;;14.10;99.90;;;;;;5014430;28;20445;-71
2023/10/14 04:09:36;;;;;;;6.13;1.80;;;14.10;99.90;;;;;;5008252;28;20516;-70
2023/10/14 04:12:07;;;;;;;3.93;1.80;;;14.10;99.90;;;;;;5016581;28;20474;-71
2023/10/14 04:14:36;;;;;;;3.77;1.60;;;14.00;99.90;;;;;;5029614;28;20494;-70
2023/10/14 04:22:27;;;;;;;3.30;1.70;;;14.00;99.90;;;;;;5029460;28;20429;-71
2023/10/14 04:25:07;;;;;;;6.00;1.83;;;14.00;99.90;;;;;;5029752;28;20198;-71
2023/10/14 04:27:36;;;;;;;6.50;1.63;;;14.00;99.90;;;;;;5020951;28;20445;-71
2023/10/14 04:30:12;;;;;;;6.70;2.13;;;14.00;99.90;;;;;;5029677;28;20516;-71
2023/10/14 04:32:47;;;;;;;7.10;1.57;;;14.00;99.90;;;;;;5028092;28;20483;-71
2023/10/14 04:35:19;;;;;;;3.60;1.60;;;13.90;99.90;;;;;;5020791;28;20453;-71
2023/10/14 04:37:51;;;;;;;6.90;2.03;;;13.90;99.90;;;;;;5029109;28;20998;-71
2023/10/14 04:45:45;;;;;;;6.60;2.50;;;14.00;99.90;;;;;;5014029;28;20424;-71
2023/10/14 04:48:12;;;;;;;4.47;1.67;;;13.90;99.90;;;;;;5029232;28;20986;-71
2023/10/14 04:50:41;;;;;;;8.07;2.00;;;13.90;99.90;;;;;;5029196;28;20913;-70
2023/10/14 04:53:09;;;;;;;7.20;1.90;;;13.90;99.90;;;;;;5028552;28;20425;-71
2023/10/14 04:55:43;;;;;;;3.37;1.47;;;13.90;99.90;;;;;;5028510;28;20476;-71
2023/10/14 04:58:12;;;;;;;3.50;1.67;;;13.90;99.90;;;;;;5029039;28;20428;-70
2023/10/14 05:00:43;;;;;;;2.53;1.50;;;13.80;99.90;;;;;;5028997;28;20423;-71
2023/10/14 05:03:13;;;;;;;5.03;2.03;;;13.70;99.90;;;;;;5028524;28;20417;-70
2023/10/14 05:08:27;;;;;;;5.13;1.77;;;13.70;99.90;;;;;;5013702;28;20430;-70
2023/10/14 05:10:53;;;;;;;3.93;1.73;;;13.60;99.90;;;;;;5008311;28;20434;-71
2023/10/14 05:13:31;;;;;;;5.20;2.17;;;13.50;99.90;;;;;;5009259;28;20458;-70
2023/10/14 05:16:11;;;;;;;3.30;1.80;;;13.50;99.90;;;;;;5018087;28;20460;-71
2023/10/14 05:18:43;;;;;;;3.87;1.60;;;13.40;99.90;;;;;;5011128;28;20422;-71
2023/10/14 05:21:35;;;;;;;7.50;2.60;;;13.40;99.90;;;;;;5007590;28;20503;-71
2023/10/14 05:24:02;;;;;;;6.97;1.63;;;13.40;99.90;;;;;;5007938;28;20453;-71
2023/10/14 05:26:27;;;;;;;4.87;1.83;;;13.40;99.90;;;;;;5010858;28;20433;-70
2023/10/14 05:28:55;;;;;;;5.77;1.90;;;13.40;99.90;;;;;;5015621;28;20417;-71
2023/10/14 05:31:23;;;;;;;6.60;2.13;;;13.30;99.90;;;;;;5013209;28;20202;-71
2023/10/14 05:33:48;;;;;;;13.63;2.63;;;13.30;99.90;;;;;;5012136;28;20559;-70
2023/10/14 05:36:14;;;;;;;4.77;2.37;;;13.30;99.90;;;;;;5021531;28;20457;-71
2023/10/14 05:38:41;;;;;;;8.43;2.00;;;13.30;99.90;;;;;;5019766;28;20182;-71
2023/10/14 05:41:11;;;;;;;8.87;2.40;;;13.20;99.90;;;;;;5031560;28;20210;-71
2023/10/14 05:43:37;;;;;;;9.13;2.57;;;13.10;99.90;;;;;;5029792;28;20855;-71
2023/10/14 05:46:12;;;;;;;7.83;2.90;;;13.10;99.90;;;;;;5012575;28;20436;-71
2023/10/14 05:48:37;;;;;;;11.03;2.90;;;13.10;99.90;;;;;;5027052;28;20243;-71
2023/10/14 05:51:04;;;;;;;8.73;2.70;;;13.10;99.90;;;;;;5025425;28;20425;-70
2023/10/14 05:53:31;;;;;;;3.77;2.20;;;13.00;99.90;;;;;;5027323;28;20210;-71
2023/10/14 05:56:09;;;;;;;6.73;2.20;;;13.00;99.90;;;;;;5016508;28;20453;-70
2023/10/14 05:58:37;;;;;;;8.20;2.40;;;13.00;99.90;;;;;;5014085;28;20474;-71
2023/10/14 06:01:10;;;;;;;5.20;2.13;;;13.00;99.90;;;;;;5028060;28;20452;-71
2023/10/14 06:03:43;;;;;;;7.77;2.20;;;13.00;99.90;;;;;;5027177;28;20445;-71
2023/10/14 06:06:15;;;;;;;5.53;2.63;;;13.00;99.90;;;;;;5021086;28;20516;-71
2023/10/14 06:08:49;;;;;;;5.53;1.93;;;12.90;99.90;;;;;;5027873;28;20428;-70
2023/10/14 06:11:16;;;;;;;6.50;1.90;;;12.90;99.90;;;;;;5027656;28;20428;-71
2023/10/14 06:13:43;;;;;;;3.43;1.70;;;12.90;99.90;;;;;;5023944;28;20437;-71
2023/10/14 06:16:10;;;;;;;8.97;1.80;;;12.90;99.90;;;;;;5026889;28;20456;-71
2023/10/14 06:18:37;;;;;;;5.80;1.90;;;12.90;99.90;;;;;;5027468;28;20464;-70
2023/10/14 06:21:05;;;;;;;8.83;2.47;;;12.90;99.90;;;;;;5026224;28;20432;-71
2023/10/14 06:23:32;;;;;;;9.20;1.83;;;12.80;99.90;;;;;;5038462;28;20453;-71
2023/10/14 06:25:58;;;;;;;5.80;2.27;;;12.80;99.90;;;;;;5025382;28;20841;-71
2023/10/14 06:28:24;;;;;;;3.10;1.60;;;12.80;99.90;;;;;;5027424;28;20417;-70
2023/10/14 06:30:50;;;;;;;7.60;2.07;;;12.80;99.90;;;;;;5027453;28;20436;-71
2023/10/14 06:33:16;;;;;;;4.97;2.03;;;12.90;99.90;;;;;;5025772;28;20269;-71
2023/10/14 06:35:42;;;;;;;13.77;2.90;;;12.80;99.90;;;;;;5016124;28;20468;-71
2023/10/14 06:38:17;;;;;;;6.53;2.10;;;12.80;99.90;;;;;;5017287;28;20471;-70
2023/10/14 06:40:44;;;;;;;6.37;2.10;;;12.70;99.90;;;;;;5011660;28;20176;-71
2023/10/14 06:43:10;;;;;;;3.20;2.00;;;12.70;99.90;;;;;;5027725;28;20426;-70
2023/10/14 06:45:37;;;;;;;6.10;1.67;;;12.80;99.90;;;;;;5024645;28;20486;-71
2023/10/14 06:48:05;;;;;;;5.00;2.00;;;12.80;99.90;;;;;;5038155;28;20409;-70
2023/10/14 06:50:32;;;;;;;5.30;3.20;;;12.90;99.90;;;;;;5027121;28;20433;-70
2023/10/14 06:52:59;;;;;;;7.60;2.30;;;12.90;99.90;;;;;;5026545;28;20786;-71
2023/10/14 06:55:33;;;;;;;7.13;3.00;;;12.90;99.90;;;;;;5015648;28;20469;-71
2023/10/14 06:57:59;;;;;;;5.70;1.87;;;13.00;99.90;;;;;;5010288;28;20453;-70
2023/10/14 07:00:29;;;;;;;5.33;2.00;;;12.90;99.90;;;;;;5015956;28;20953;-70
2023/10/14 07:02:57;;;;;;;5.10;2.40;;;12.90;99.90;;;;;;5010416;28;20782;-71
2023/10/14 07:05:23;;;;;;;5.73;1.93;;;13.00;99.90;;;;;;5019696;28;20414;-70
2023/10/14 07:07:52;;;;;;;14.50;2.53;;;13.00;99.90;;;;;;5026817;28;20458;-71
2023/10/14 07:10:18;;;;;;;5.00;2.00;;;13.00;99.90;;;;;;5026744;28;20413;-70
2023/10/14 07:12:43;;;;;;;11.07;1.97;;;13.00;99.90;;;;;;5012889;28;20997;-70
2023/10/14 07:15:12;;;;;;;4.50;2.20;;;13.00;99.90;;;;;;5016087;28;20214;-70
2023/10/14 07:17:42;;;;;;;6.10;2.10;;;13.10;99.90;;;;;;5013386;28;20455;-70
2023/10/14 07:20:12;;;;;;;4.83;1.90;;;13.10;99.90;;;;;;5026839;28;20516;-70
2023/10/14 07:22:42;;;;;;;9.47;2.60;;;13.30;99.90;;;;;;5021392;28;20454;-70
2023/10/14 07:25:11;;;;;;;9.07;1.97;;;13.30;99.90;;;;;;5010183;28;20488;-69
2023/10/14 07:27:40;;;;;;;9.70;2.90;;;13.40;99.90;;;;;;5010862;28;20429;-70
2023/10/14 07:30:16;;;;;;;8.30;1.97;;;13.50;99.90;;;;;;5009725;28;20783;-69
2023/10/14 07:32:47;;;;;;;8.57;2.40;;;13.70;99.90;;;;;;5010503;28;20484;-70
2023/10/14 07:35:14;;;;;;;6.20;2.10;;;13.90;99.90;;;;;;5006356;28;20458;-70
2023/10/14 07:37:45;;;;;;;6.87;2.33;;;14.00;99.90;;;;;;5009225;28;20432;-70
2023/10/14 07:40:22;;;;;;;9.33;2.90;;;14.00;99.90;;;;;;5006735;28;20736;-70
2023/10/14 07:42:52;;;;;;;7.60;3.20;;;14.10;99.90;;;;;;5007457;28;20460;-70
2023/10/14 07:45:22;;;;;;;4.60;1.90;;;14.10;99.90;;;;;;5013072;28;20449;-70
2023/10/14 07:47:49;;;;;;;4.07;2.20;;;14.30;99.90;;;;;;5017803;28;20409;-71
2023/10/14 07:50:15;;;;;;;5.77;2.73;;;14.40;99.90;;;;;;5029941;28;20937;-71
2023/10/14 07:52:42;;;;;;;14.10;3.00;;;14.60;99.90;;;;;;5029536;28;20418;-71
2023/10/14 07:55:15;;;;;;;10.47;2.93;;;14.80;99.90;;;;;;5029273;28;20456;-71
2023/10/14 07:57:42;;;;;;;9.13;2.13;;;15.00;99.90;;;;;;5015618;28;20417;-70
2023/10/14 08:00:12;;;;;;;8.47;2.23;;;15.20;99.90;;;;;;5017856;28;20455;-71
2023/10/14 08:02:39;;;;;;;11.03;2.80;;;15.50;99.90;;;;;;5029495;28;20891;-70
2023/10/14 08:05:07;;;;;;;7.53;2.20;;;15.80;99.90;;;;;;5023638;28;20465;-71
2023/10/14 08:07:40;;;;;;;5.70;1.87;;;15.90;99.90;;;;;;5029510;28;20429;-71
2023/10/14 08:10:17;;;;;;;6.03;2.63;;;16.00;99.90;;;;;;5030171;28;20879;-69
2023/10/14 08:12:44;;;;;;;6.87;2.70;;;16.00;99.90;;;;;;5025811;28;20420;-71
2023/10/14 08:15:10;;;;;;;7.57;2.40;;;16.00;99.90;;;;;;5028205;28;20808;-71
2023/10/14 08:17:36;;;;;;;8.83;2.23;;;16.00;99.90;;;;;;5029506;28;20784;-71
2023/10/14 08:20:12;;;;;;;7.03;2.30;;;16.00;99.90;;;;;;5029720;28;20429;-71
2023/10/14 08:22:39;;;;;;;11.53;3.20;;;16.10;99.90;;;;;;5008768;28;20186;-71
2023/10/14 08:25:07;;;;;;;9.20;2.70;;;16.10;99.90;;;;;;5011476;28;20499;-71
2023/10/14 08:27:34;;;;;;;8.50;2.37;;;16.40;99.90;;;;;;5012255;28;20426;-71
2023/10/14 08:30:00;;;;;;;7.70;2.07;;;16.40;99.90;;;;;;5028760;28;20421;-71
2023/10/14 08:32:27;;;;;;;6.73;2.60;;;16.60;99.90;;;;;;5025999;28;20954;-70
2023/10/14 08:34:52;;;;;;;9.27;2.50;;;16.60;99.90;;;;;;5023557;28;21028;-70
2023/10/14 08:37:18;;;;;;;8.03;2.57;;;16.80;99.90;;;;;;5014495;28;20422;-70
2023/10/14 08:39:44;;;;;;;8.43;3.00;;;16.80;99.90;;;;;;5031648;28;20178;-71
2023/10/14 08:42:10;;;;;;;7.17;2.07;;;16.90;99.90;;;;;;5020007;28;20555;-71
2023/10/14 08:44:42;;;;;;;8.63;3.20;;;16.90;99.90;;;;;;5019327;28;20210;-70
2023/10/14 08:47:13;;;;;;;7.90;2.27;;;16.90;99.90;;;;;;5020668;28;20490;-70
2023/10/14 08:49:42;;;;;;;4.83;2.00;;;17.00;99.90;;;;;;5029608;28;20436;-70
2023/10/14 08:52:16;;;;;;;11.20;2.50;;;17.00;99.90;;;;;;5029124;28;20438;-70
2023/10/14 08:54:43;;;;;;;7.47;2.10;;;17.10;99.90;;;;;;5029021;28;20895;-71
2023/10/14 08:57:09;;;;;;;6.70;2.07;;;17.20;99.90;;;;;;5010090;28;20438;-70
2023/10/14 08:59:34;;;;;;;8.37;2.20;;;17.30;99.90;;;;;;5011304;28;20429;-71
2023/10/14 09:02:01;;;;;;;6.97;2.00;;;17.40;99.90;;;;;;5008876;28;20649;-70
2023/10/14 09:04:28;;;;;;;7.57;2.50;;;17.50;99.90;;;;;;5012527;28;20718;-70
2023/10/14 09:07:00;;;;;;;8.20;1.97;;;17.60;99.90;;;;;;5011307;28;20445;-71
2023/10/14 09:09:26;;;;;;;10.33;2.23;;;17.50;99.90;;;;;;5018030;28;20465;-70
2023/10/14 09:11:52;;;;;;;9.33;2.53;;;17.40;99.90;;;;;;5013442;28;20457;-70
2023/10/14 09:14:18;;;;;;;8.07;2.27;;;17.60;99.90;;;;;;5014340;28;20207;-70
2023/10/14 09:16:49;;;;;;;5.57;2.33;;;17.70;99.90;;;;;;5013700;28;20429;-70
2023/10/14 09:19:15;;;;;;;11.23;2.70;;;17.90;99.90;;;;;;5011137;28;20187;-70
2023/10/14 09:21:45;;;;;;;8.53;2.27;;;18.10;99.90;;;;;;5011929;28;20500;-71
2023/10/14 09:24:11;;;;;;;6.33;1.90;;;18.00;99.90;;;;;;5012593;28;20280;-70
2023/10/14 09:26:43;;;;;;;7.60;2.67;;;17.90;99.90;;;;;;5016056;28;21410;-71
2023/10/14 09:29:09;;;;;;;8.30;2.00;;;17.70;99.90;;;;;;5009293;28;20531;-71
2023/10/14 09:31:40;;;;;;;5.63;2.40;;;17.60;99.90;;;;;;5014026;28;20487;-71
2023/10/14 09:34:08;;;;;;;9.47;2.73;;;17.50;99.90;;;;;;5023352;28;20524;-71
2023/10/14 09:36:37;;;;;;;5.93;2.20;;;17.40;99.90;;;;;;5025400;28;20444;-71
2023/10/14 09:39:11;;;;;;;9.93;2.63;;;17.40;99.90;;;;;;5010840;28;20448;-71
2023/10/14 09:41:38;;;;;;;5.33;2.43;;;17.40;99.90;;;;;;5027656;28;20424;-70
2023/10/14 09:44:06;;;;;;;9.00;2.17;;;17.30;99.90;;;;;;5028012;28;20776;-71
2023/10/14 09:46:32;;;;;;;7.43;2.20;;;17.20;99.90;;;;;;5019273;28;20422;-71
2023/10/14 09:49:00;;;;;;;8.70;2.03;;;17.30;99.90;;;;;;5009409;28;20434;-71
2023/10/14 09:51:26;;;;;;;7.77;1.77;;;17.30;99.90;;;;;;5011893;28;20422;-71
2023/10/14 09:53:53;;;;;;;13.80;2.40;;;17.20;99.90;;;;;;5009570;28;20457;-70
2023/10/14 09:56:21;;;;;;;11.37;2.80;;;17.20;99.90;;;;;;5011245;28;20199;-70
2023/10/14 09:58:47;;;;;;;10.53;2.93;;;17.20;99.90;;;;;;5021449;28;20432;-70
2023/10/14 10:01:14;;;;;;;13.50;4.03;;;17.10;99.90;;;;;;5017410;28;20430;-70
2023/10/14 10:03:48;;;;;;;8.03;2.40;;;17.10;99.90;;;;;;5010734;28;20256;-70
2023/10/14 10:06:25;;;;;;;6.17;2.20;;;17.00;99.90;;;;;;5003194;28;20432;-70
2023/10/14 10:08:57;;;;;;;8.43;2.83;;;17.20;99.90;;;;;;5012217;28;20418;-71
2023/10/14 10:11:24;;;;;;;5.90;2.80;;;17.20;99.90;;;;;;5010781;28;20422;-72
2023/10/14 10:13:52;;;;;;;7.47;1.83;;;17.00;99.90;;;;;;5019985;28;20785;-71
2023/10/14 10:16:21;;;;;;;7.97;2.30;;;16.70;99.90;;;;;;5010642;28;20457;-70
2023/10/14 10:19:00;;;;;;;5.87;2.37;;;16.60;99.90;;;;;;5016942;28;20505;-71
2023/10/14 10:21:30;;;;;;;6.90;3.20;;;16.60;99.90;;;;;;5012057;28;20434;-72
2023/10/14 10:24:09;;;;;;;4.10;2.10;;;16.50;99.90;;;;;;5026816;28;20445;-71
2023/10/14 10:26:58;;;;;;;8.33;2.70;;;16.30;99.90;;;;;;5025387;28;20508;-71
2023/10/14 10:29:24;;;;;;;8.23;2.47;;;16.40;99.90;;;;;;5022046;28;20788;-71
2023/10/14 10:32:09;;;;;;;4.70;1.80;;;16.40;99.90;;;;;;5012309;28;20474;-71
2023/10/14 10:35:07;;;;;;;7.53;2.47;;;16.40;99.90;;;;;;5017144;28;20452;-71
2023/10/14 10:38:00;;;;;;;10.20;4.13;;;16.30;99.90;;;;;;5007410;28;20446;-71
2023/10/14 10:40:29;;;;;;;9.07;3.07;;;16.20;99.90;;;;;;5023001;28;20421;-70
2023/10/14 10:42:57;;;;;;;10.30;2.90;;;16.20;99.90;;;;;;5020885;28;20418;-71
2023/10/14 10:45:46;;;;;;;9.63;2.43;;;16.30;99.90;;;;;;5013404;28;20510;-71
2023/10/14 10:48:15;;;;;;;8.13;2.10;;;16.30;99.90;;;;;;5005119;28;20422;-71
2023/10/14 10:50:49;;;;;;;5.90;2.53;;;16.50;99.90;;;;;;5008374;28;20916;-71
2023/10/14 10:53:19;;;;;;;5.40;2.53;;;16.60;99.90;;;;;;5009870;28;21366;-71
2023/10/14 10:55:46;;;;;;;5.53;2.40;;;16.50;99.90;;;;;;5008693;28;20457;-71
2023/10/14 10:58:13;;;;;;;8.70;2.17;;;16.50;99.90;;;;;;5011533;28;20418;-71
2023/10/14 11:00:46;;;;;;;6.90;2.40;;;16.40;99.90;;;;;;5011077;28;20432;-71
2023/10/14 11:03:16;;;;;;;7.00;2.50;;;16.50;99.90;;;;;;5016651;28;20920;-71
2023/10/14 11:05:44;;;;;;;7.73;3.43;;;16.50;99.90;;;;;;5013486;28;20444;-71
2023/10/14 11:08:11;;;;;;;8.07;2.23;;;16.50;99.90;;;;;;5010363;28;20472;-71
2023/10/14 11:10:38;;;;;;;7.77;2.10;;;16.50;99.90;;;;;;5006855;28;20486;-71
2023/10/14 11:13:08;;;;;;;7.00;2.10;;;16.40;99.90;;;;;;5008137;28;20422;-71
2023/10/14 11:15:36;;;;;;;6.90;2.37;;;16.20;99.90;;;;;;5015064;28;20955;-71
2023/10/14 11:18:02;;;;;;;6.10;2.03;;;16.10;99.90;;;;;;5011317;28;20949;-71
2023/10/14 11:20:34;;;;;;;7.63;3.10;;;16.10;99.90;;;;;;5017232;28;20438;-71
2023/10/14 11:23:01;;;;;;;5.33;1.90;;;16.10;99.90;;;;;;5030965;28;20187;-71
2023/10/14 11:25:30;;;;;;;6.63;2.20;;;16.10;99.90;;;;;;5019961;28;20481;-71
2023/10/14 11:27:59;;;;;;;11.10;2.83;;;16.10;99.90;;;;;;5022925;28;20421;-71
2023/10/14 11:30:27;;;;;;;7.07;2.30;;;16.30;99.90;;;;;;5028757;28;20512;-70
2023/10/14 11:32:55;;;;;;;4.17;1.93;;;16.30;99.90;;;;;;5017304;28;20743;-71
2023/10/14 11:35:21;;;;;;;6.03;2.20;;;16.40;99.90;;;;;;5015936;28;21102;-71
2023/10/14 11:38:02;;;;;;;4.60;2.20;;;16.30;99.90;;;;;;5021082;28;20459;-71
2023/10/14 11:40:40;;;;;;;6.47;2.10;;;16.20;99.90;;;;;;5026332;28;20424;-72
2023/10/14 11:43:07;;;;;;;8.43;2.07;;;16.30;99.90;;;;;;5015341;28;20468;-72
2023/10/14 11:45:36;;;;;;;6.50;2.20;;;16.40;99.90;;;;;;5021627;28;20420;-72
2023/10/14 11:48:02;;;;;;;6.30;2.33;;;16.60;99.90;;;;;;5030074;28;20495;-72
2023/10/14 11:50:30;;;;;;;5.73;2.10;;;16.80;99.90;;;;;;5023210;28;20422;-72
2023/10/14 11:52:57;;;;;;;7.33;2.27;;;17.00;99.90;;;;;;5011333;28;20428;-72
2023/10/14 11:55:27;;;;;;;7.53;2.00;;;17.20;99.90;;;;;;5015861;28;20482;-72
2023/10/14 11:57:53;;;;;;;5.13;2.67;;;17.30;99.90;;;;;;5026246;28;20428;-72
2023/10/14 12:00:20;;;;;;;4.23;1.87;;;17.30;99.90;;;;;;5026818;28;20422;-72
2023/10/14 12:02:50;;;;;;;5.73;2.17;;;17.00;99.90;;;;;;5016658;28;21027;-72
2023/10/14 12:05:17;;;;;;;6.90;2.27;;;16.80;99.90;;;;;;5017482;28;20445;-71
2023/10/14 12:07:43;;;;;;;6.10;1.60;;;16.60;99.90;;;;;;5030616;28;20405;-71
2023/10/14 12:10:09;;;;;;;10.43;2.20;;;16.70;99.90;;;;;;5030913;28;20823;-71
2023/10/14 12:12:39;;;;;;;6.83;2.10;;;16.90;99.90;;;;;;5027894;28;20450;-71
2023/10/14 12:15:08;;;;;;;7.23;2.60;;;17.10;99.90;;;;;;5030443;28;20460;-72
2023/10/14 12:17:35;;;;;;;5.53;1.87;;;17.10;99.90;;;;;;5026950;28;20418;-72
2023/10/14 12:20:10;;;;;;;5.80;1.80;;;17.20;99.90;;;;;;5016689;28;20528;-72
2023/10/14 12:22:40;;;;;;;4.87;1.77;;;17.30;99.90;;;;;;5028207;28;20456;-72
2023/10/14 12:25:06;;;;;;;5.40;1.90;;;17.30;99.90;;;;;;5030360;28;20464;-72
2023/10/14 12:27:33;;;;;;;6.17;1.70;;;17.40;99.90;;;;;;5029842;28;20425;-72
2023/10/14 12:30:00;;;;;;;8.33;2.37;;;17.60;99.90;;;;;;5029323;28;20984;-72
2023/10/14 12:32:32;;;;;;;6.00;2.20;;;17.70;99.70;;;;;;5029580;28;20474;-72
2023/10/14 12:35:01;;;;;;;5.83;1.80;;;17.80;99.60;;;;;;5020947;28;20465;-72
2023/10/14 12:37:28;;;;;;;4.93;1.80;;;17.80;98.70;;;;;;5015601;28;20843;-71
2023/10/14 12:40:11;;;;;;;6.40;1.60;;;17.90;99.60;;;;;;5027523;28;20414;-71
2023/10/14 12:42:48;;;;;;;5.43;1.37;;;17.90;98.50;;;;;;5029945;28;20409;-72
2023/10/14 12:45:22;;;;;;;5.50;1.43;;;17.80;98.40;;;;;;5029682;28;20433;-71
2023/10/14 12:47:48;;;;;;;5.17;1.57;;;17.50;97.00;;;;;;5024968;28;20949;-71
2023/10/14 12:50:15;;;;;;;4.17;1.60;;;17.50;98.30;;;;;;5028751;28;20413;-71
2023/10/14 12:52:42;;;;;;;2.40;1.20;;;17.70;96.00;;;;;;5029470;28;20980;-71
2023/10/14 12:55:17;;;;;;;4.17;1.60;;;17.80;93.70;;;;;;5029642;28;20476;-71
2023/10/14 12:57:43;;;;;;;5.17;1.57;;;17.90;94.80;;;;;;5029421;28;20642;-72
2023/10/14 13:00:17;;;;;;;5.17;1.73;;;18.10;95.10;;;;;;5027414;28;21040;-71
2023/10/14 13:02:45;;;;;;;5.20;1.77;;;18.20;94.30;;;;;;5029247;28;20468;-72
2023/10/14 13:05:18;;;;;;;3.80;1.57;;;18.40;95.30;;;;;;5035371;28;20433;-72
2023/10/14 13:07:46;;;;;;;3.30;1.43;;;18.50;95.10;;;;;;5029438;28;20421;-72
2023/10/14 13:10:18;;;;;;;4.00;1.60;;;18.60;95.10;;;;;;5028224;28;20448;-72
2023/10/14 13:12:51;;;;;;;2.83;1.40;;;18.70;94.60;;;;;;5029135;28;20463;-72
2023/10/14 13:15:25;;;;;;;4.60;1.67;;;18.80;94.60;;;;;;5020914;28;20465;-71
2023/10/14 13:17:59;;;;;;;5.07;1.87;;;18.70;93.50;;;;;;5014028;28;21155;-71
2023/10/14 13:20:29;;;;;;;9.90;2.23;;;18.60;94.00;;;;;;5012832;28;20436;-71
2023/10/14 13:23:07;;;;;;;4.97;1.30;;;18.60;95.50;;;;;;5013839;28;20464;-72
2023/10/14 13:25:37;;;;;;;7.00;1.67;;;18.50;93.50;;;;;;5014081;28;20434;-72
2023/10/14 13:28:11;;;;;;;3.97;1.63;;;18.40;94.60;;;;;;5010952;28;20858;-72
2023/10/14 13:30:47;;;;;;;5.60;1.77;;;18.50;95.00;;;;;;5012064;28;20430;-72
2023/10/14 13:33:16;;;;;;;6.10;1.90;;;18.40;94.20;;;;;;5014674;28;20409;-71
2023/10/14 13:35:45;;;;;;;5.23;1.60;;;18.10;92.50;;;;;;5009361;28;21362;-72
2023/10/14 13:38:12;;;;;;;5.60;2.07;;;18.00;92.90;;;;;;5013974;28;20476;-72
2023/10/14 13:40:39;;;;;;;4.87;1.77;;;17.90;93.10;;;;;;5019264;28;20421;-72